sensor_id;sensor_type;location;lat;lon;timestamp;P1;durP1;ratioP1;P2;durP2;ratioP2
7336;SDS011;54510;42.016;23.098;2022-12-05T00:01:51;10.70;;;6.68;;
7336;SDS011;54510;42.016;23.098;2022-12-05T00:04:16;10.40;;;6.38;;
7336;SDS011;54510;42.016;23.098;2022-12-05T00:06:42;10.73;;;6.88;;
7336;SDS011;54510;42.016;23.098;2022-12-05T00:09:08;9.90;;;6.38;;
7336;SDS011;54510;42.016;23.098;2022-12-05T00:11:35;10.13;;;6.43;;
7336;SDS011;54510;42.016;23.098;2022-12-05T00:14:02;11.85;;;7.38;;
7336;SDS011;54510;42.016;23.098;2022-12-05T00:16:30;11.27;;;6.68;;
7336;SDS011;54510;42.016;23.098;2022-12-05T00:19:00;11.65;;;6.72;;
7336;SDS011;54510;42.016;23.098;2022-12-05T00:21:28;11.60;;;7.53;;
7336;SDS011;54510;42.016;23.098;2022-12-05T00:23:55;9.95;;;6.20;;
7336;SDS011;54510;42.016;23.098;2022-12-05T00:26:22;10.02;;;6.53;;
7336;SDS011;54510;42.016;23.098;2022-12-05T00:28:48;14.52;;;7.13;;
7336;SDS011;54510;42.016;23.098;2022-12-05T00:31:16;12.68;;;8.57;;
7336;SDS011;54510;42.016;23.098;2022-12-05T00:33:43;10.48;;;6.82;;
7336;SDS011;54510;42.016;23.098;2022-12-05T00:36:10;12.20;;;7.13;;
7336;SDS011;54510;42.016;23.098;2022-12-05T00:38:44;10.55;;;6.57;;
7336;SDS011;54510;42.016;23.098;2022-12-05T00:41:11;10.00;;;5.97;;
7336;SDS011;54510;42.016;23.098;2022-12-05T00:43:39;9.05;;;5.55;;
7336;SDS011;54510;42.016;23.098;2022-12-05T00:46:06;10.85;;;5.97;;
7336;SDS011;54510;42.016;23.098;2022-12-05T00:48:34;9.25;;;6.18;;
7336;SDS011;54510;42.016;23.098;2022-12-05T00:51:01;10.63;;;6.68;;
7336;SDS011;54510;42.016;23.098;2022-12-05T00:53:47;8.15;;;5.40;;
7336;SDS011;54510;42.016;23.098;2022-12-05T00:56:14;8.75;;;6.07;;
7336;SDS011;54510;42.016;23.098;2022-12-05T00:58:44;7.78;;;5.45;;
7336;SDS011;54510;42.016;23.098;2022-12-05T01:01:14;10.60;;;6.45;;
7336;SDS011;54510;42.016;23.098;2022-12-05T01:03:43;9.55;;;5.80;;
7336;SDS011;54510;42.016;23.098;2022-12-05T01:06:09;8.30;;;5.57;;
7336;SDS011;54510;42.016;23.098;2022-12-05T01:08:35;8.18;;;5.28;;
7336;SDS011;54510;42.016;23.098;2022-12-05T01:11:01;9.80;;;5.95;;
7336;SDS011;54510;42.016;23.098;2022-12-05T01:13:28;8.43;;;5.70;;
7336;SDS011;54510;42.016;23.098;2022-12-05T01:15:54;8.80;;;5.15;;
7336;SDS011;54510;42.016;23.098;2022-12-05T01:18:20;10.50;;;5.75;;
7336;SDS011;54510;42.016;23.098;2022-12-05T01:20:46;9.50;;;5.93;;
7336;SDS011;54510;42.016;23.098;2022-12-05T01:23:12;8.80;;;5.50;;
7336;SDS011;54510;42.016;23.098;2022-12-05T01:25:38;7.13;;;4.97;;
7336;SDS011;54510;42.016;23.098;2022-12-05T01:28:05;9.90;;;5.30;;
7336;SDS011;54510;42.016;23.098;2022-12-05T01:30:31;8.30;;;5.35;;
7336;SDS011;54510;42.016;23.098;2022-12-05T01:32:57;9.18;;;6.18;;
7336;SDS011;54510;42.016;23.098;2022-12-05T01:35:23;9.43;;;4.88;;
7336;SDS011;54510;42.016;23.098;2022-12-05T01:37:49;10.07;;;5.43;;
7336;SDS011;54510;42.016;23.098;2022-12-05T01:40:15;8.10;;;5.43;;
7336;SDS011;54510;42.016;23.098;2022-12-05T01:42:41;7.32;;;5.47;;
7336;SDS011;54510;42.016;23.098;2022-12-05T01:45:11;9.52;;;5.90;;
7336;SDS011;54510;42.016;23.098;2022-12-05T01:47:40;7.90;;;5.20;;
7336;SDS011;54510;42.016;23.098;2022-12-05T01:50:06;8.52;;;4.93;;
7336;SDS011;54510;42.016;23.098;2022-12-05T01:52:32;9.10;;;5.60;;
7336;SDS011;54510;42.016;23.098;2022-12-05T01:55:00;11.02;;;4.78;;
7336;SDS011;54510;42.016;23.098;2022-12-05T01:57:30;8.65;;;5.47;;
7336;SDS011;54510;42.016;23.098;2022-12-05T01:59:58;8.00;;;5.93;;
7336;SDS011;54510;42.016;23.098;2022-12-05T02:02:27;6.93;;;5.13;;
7336;SDS011;54510;42.016;23.098;2022-12-05T02:04:57;10.40;;;5.65;;
7336;SDS011;54510;42.016;23.098;2022-12-05T02:07:28;7.90;;;5.55;;
7336;SDS011;54510;42.016;23.098;2022-12-05T02:09:54;8.15;;;5.10;;
7336;SDS011;54510;42.016;23.098;2022-12-05T02:12:19;8.52;;;5.63;;
7336;SDS011;54510;42.016;23.098;2022-12-05T02:15:10;8.07;;;5.00;;
7336;SDS011;54510;42.016;23.098;2022-12-05T02:25:44;8.90;;;5.18;;
7336;SDS011;54510;42.016;23.098;2022-12-05T02:31:49;8.23;;;6.30;;
7336;SDS011;54510;42.016;23.098;2022-12-05T02:34:29;11.05;;;5.72;;
7336;SDS011;54510;42.016;23.098;2022-12-05T02:37:22;10.57;;;6.10;;
7336;SDS011;54510;42.016;23.098;2022-12-05T02:40:13;10.18;;;7.10;;
7336;SDS011;54510;42.016;23.098;2022-12-05T02:45:24;12.20;;;7.28;;
7336;SDS011;54510;42.016;23.098;2022-12-05T02:47:53;11.77;;;6.38;;
7336;SDS011;54510;42.016;23.098;2022-12-05T02:50:22;11.80;;;7.10;;
7336;SDS011;54510;42.016;23.098;2022-12-05T02:52:53;9.85;;;5.97;;
7336;SDS011;54510;42.016;23.098;2022-12-05T02:55:22;9.23;;;6.25;;
7336;SDS011;54510;42.016;23.098;2022-12-05T02:57:52;10.77;;;6.30;;
7336;SDS011;54510;42.016;23.098;2022-12-05T03:00:20;7.72;;;5.10;;
7336;SDS011;54510;42.016;23.098;2022-12-05T03:02:46;8.98;;;5.30;;
7336;SDS011;54510;42.016;23.098;2022-12-05T03:05:18;8.13;;;4.90;;
7336;SDS011;54510;42.016;23.098;2022-12-05T03:07:45;6.38;;;4.40;;
7336;SDS011;54510;42.016;23.098;2022-12-05T03:10:14;8.38;;;4.82;;
7336;SDS011;54510;42.016;23.098;2022-12-05T03:12:45;9.27;;;5.95;;
7336;SDS011;54510;42.016;23.098;2022-12-05T03:15:23;10.32;;;6.00;;
7336;SDS011;54510;42.016;23.098;2022-12-05T03:18:03;8.20;;;5.38;;
7336;SDS011;54510;42.016;23.098;2022-12-05T03:23:27;8.48;;;5.18;;
7336;SDS011;54510;42.016;23.098;2022-12-05T03:35:08;9.65;;;6.05;;
7336;SDS011;54510;42.016;23.098;2022-12-05T03:40:12;7.78;;;5.07;;
7336;SDS011;54510;42.016;23.098;2022-12-05T03:42:54;9.25;;;6.43;;
7336;SDS011;54510;42.016;23.098;2022-12-05T03:45:50;10.75;;;7.57;;
7336;SDS011;54510;42.016;23.098;2022-12-05T03:50:53;10.90;;;7.18;;
7336;SDS011;54510;42.016;23.098;2022-12-05T03:53:24;15.18;;;8.23;;
7336;SDS011;54510;42.016;23.098;2022-12-05T03:56:13;18.67;;;9.18;;
7336;SDS011;54510;42.016;23.098;2022-12-05T03:58:46;16.10;;;8.23;;
7336;SDS011;54510;42.016;23.098;2022-12-05T04:01:19;11.90;;;7.72;;
7336;SDS011;54510;42.016;23.098;2022-12-05T04:04:04;12.73;;;7.85;;
7336;SDS011;54510;42.016;23.098;2022-12-05T04:06:35;11.13;;;7.20;;
7336;SDS011;54510;42.016;23.098;2022-12-05T04:09:04;12.52;;;7.35;;
7336;SDS011;54510;42.016;23.098;2022-12-05T04:11:32;12.82;;;7.97;;
7336;SDS011;54510;42.016;23.098;2022-12-05T04:14:03;13.05;;;7.60;;
7336;SDS011;54510;42.016;23.098;2022-12-05T04:16:43;13.40;;;7.47;;
7336;SDS011;54510;42.016;23.098;2022-12-05T04:22:42;9.38;;;5.97;;
7336;SDS011;54510;42.016;23.098;2022-12-05T04:25:09;13.10;;;6.60;;
7336;SDS011;54510;42.016;23.098;2022-12-05T04:27:58;10.90;;;5.60;;
7336;SDS011;54510;42.016;23.098;2022-12-05T04:30:47;10.90;;;6.45;;
7336;SDS011;54510;42.016;23.098;2022-12-05T04:38:44;10.73;;;6.95;;
7336;SDS011;54510;42.016;23.098;2022-12-05T04:41:40;11.60;;;6.63;;
7336;SDS011;54510;42.016;23.098;2022-12-05T04:44:11;12.90;;;6.65;;
7336;SDS011;54510;42.016;23.098;2022-12-05T04:46:40;10.20;;;6.60;;
7336;SDS011;54510;42.016;23.098;2022-12-05T04:49:09;8.52;;;6.63;;
7336;SDS011;54510;42.016;23.098;2022-12-05T04:51:37;10.00;;;6.32;;
7336;SDS011;54510;42.016;23.098;2022-12-05T04:54:15;10.63;;;5.68;;
7336;SDS011;54510;42.016;23.098;2022-12-05T04:56:44;11.18;;;6.47;;
7336;SDS011;54510;42.016;23.098;2022-12-05T04:59:14;9.02;;;6.20;;
7336;SDS011;54510;42.016;23.098;2022-12-05T05:01:41;9.93;;;5.47;;
7336;SDS011;54510;42.016;23.098;2022-12-05T05:04:23;9.43;;;5.90;;
7336;SDS011;54510;42.016;23.098;2022-12-05T05:06:53;11.18;;;6.65;;
7336;SDS011;54510;42.016;23.098;2022-12-05T05:09:18;8.98;;;5.78;;
7336;SDS011;54510;42.016;23.098;2022-12-05T05:11:43;9.05;;;5.72;;
7336;SDS011;54510;42.016;23.098;2022-12-05T05:14:09;9.10;;;6.10;;
7336;SDS011;54510;42.016;23.098;2022-12-05T05:16:36;10.98;;;6.55;;
7336;SDS011;54510;42.016;23.098;2022-12-05T05:19:03;17.48;;;7.25;;
7336;SDS011;54510;42.016;23.098;2022-12-05T05:21:32;17.42;;;7.43;;
7336;SDS011;54510;42.016;23.098;2022-12-05T05:23:59;13.48;;;7.95;;
7336;SDS011;54510;42.016;23.098;2022-12-05T05:26:26;15.30;;;7.53;;
7336;SDS011;54510;42.016;23.098;2022-12-05T05:28:53;16.05;;;8.93;;
7336;SDS011;54510;42.016;23.098;2022-12-05T05:31:19;16.98;;;9.48;;
7336;SDS011;54510;42.016;23.098;2022-12-05T05:33:51;17.15;;;10.00;;
7336;SDS011;54510;42.016;23.098;2022-12-05T05:36:19;19.88;;;9.65;;
7336;SDS011;54510;42.016;23.098;2022-12-05T05:38:46;14.65;;;9.88;;
7336;SDS011;54510;42.016;23.098;2022-12-05T05:41:17;17.38;;;9.82;;
7336;SDS011;54510;42.016;23.098;2022-12-05T05:43:50;13.93;;;8.65;;
7336;SDS011;54510;42.016;23.098;2022-12-05T05:46:16;14.07;;;9.35;;
7336;SDS011;54510;42.016;23.098;2022-12-05T05:48:43;17.30;;;10.48;;
7336;SDS011;54510;42.016;23.098;2022-12-05T05:51:09;19.70;;;11.68;;
7336;SDS011;54510;42.016;23.098;2022-12-05T05:53:36;16.55;;;10.30;;
7336;SDS011;54510;42.016;23.098;2022-12-05T05:56:06;17.77;;;11.25;;
7336;SDS011;54510;42.016;23.098;2022-12-05T05:58:33;19.80;;;11.52;;
7336;SDS011;54510;42.016;23.098;2022-12-05T06:01:02;20.63;;;11.85;;
7336;SDS011;54510;42.016;23.098;2022-12-05T06:03:32;27.17;;;12.77;;
7336;SDS011;54510;42.016;23.098;2022-12-05T06:05:59;21.98;;;12.02;;
7336;SDS011;54510;42.016;23.098;2022-12-05T06:08:30;18.25;;;11.70;;
7336;SDS011;54510;42.016;23.098;2022-12-05T06:10:56;17.23;;;10.32;;
7336;SDS011;54510;42.016;23.098;2022-12-05T06:13:22;17.50;;;10.13;;
7336;SDS011;54510;42.016;23.098;2022-12-05T06:15:47;16.98;;;10.43;;
7336;SDS011;54510;42.016;23.098;2022-12-05T06:18:13;18.35;;;11.23;;
7336;SDS011;54510;42.016;23.098;2022-12-05T06:20:38;21.08;;;9.95;;
7336;SDS011;54510;42.016;23.098;2022-12-05T06:23:03;22.65;;;12.73;;
7336;SDS011;54510;42.016;23.098;2022-12-05T06:25:29;20.42;;;13.30;;
7336;SDS011;54510;42.016;23.098;2022-12-05T06:27:54;19.48;;;10.75;;
7336;SDS011;54510;42.016;23.098;2022-12-05T06:30:20;22.90;;;11.50;;
7336;SDS011;54510;42.016;23.098;2022-12-05T06:32:45;17.88;;;10.63;;
7336;SDS011;54510;42.016;23.098;2022-12-05T06:35:11;18.27;;;10.15;;
7336;SDS011;54510;42.016;23.098;2022-12-05T06:37:42;14.68;;;10.18;;
7336;SDS011;54510;42.016;23.098;2022-12-05T06:40:12;23.92;;;13.35;;
7336;SDS011;54510;42.016;23.098;2022-12-05T06:42:38;18.67;;;12.00;;
7336;SDS011;54510;42.016;23.098;2022-12-05T06:45:04;17.05;;;11.13;;
7336;SDS011;54510;42.016;23.098;2022-12-05T06:47:30;16.27;;;10.25;;
7336;SDS011;54510;42.016;23.098;2022-12-05T06:49:55;29.80;;;10.90;;
7336;SDS011;54510;42.016;23.098;2022-12-05T06:52:21;16.52;;;9.93;;
7336;SDS011;54510;42.016;23.098;2022-12-05T06:54:46;13.50;;;8.90;;
7336;SDS011;54510;42.016;23.098;2022-12-05T06:57:12;18.85;;;9.57;;
7336;SDS011;54510;42.016;23.098;2022-12-05T06:59:38;17.63;;;10.13;;
7336;SDS011;54510;42.016;23.098;2022-12-05T07:02:03;16.83;;;8.75;;
7336;SDS011;54510;42.016;23.098;2022-12-05T07:04:32;16.63;;;8.50;;
7336;SDS011;54510;42.016;23.098;2022-12-05T07:06:58;9.93;;;6.68;;
7336;SDS011;54510;42.016;23.098;2022-12-05T07:09:26;15.27;;;7.47;;
7336;SDS011;54510;42.016;23.098;2022-12-05T07:12:12;10.93;;;6.88;;
7336;SDS011;54510;42.016;23.098;2022-12-05T07:14:40;13.88;;;7.05;;
7336;SDS011;54510;42.016;23.098;2022-12-05T07:17:06;11.27;;;5.45;;
7336;SDS011;54510;42.016;23.098;2022-12-05T07:19:32;12.50;;;6.63;;
7336;SDS011;54510;42.016;23.098;2022-12-05T07:21:58;10.80;;;7.38;;
7336;SDS011;54510;42.016;23.098;2022-12-05T07:24:23;12.52;;;7.20;;
7336;SDS011;54510;42.016;23.098;2022-12-05T07:26:49;10.85;;;6.35;;
7336;SDS011;54510;42.016;23.098;2022-12-05T07:29:14;11.63;;;7.72;;
7336;SDS011;54510;42.016;23.098;2022-12-05T07:31:39;8.88;;;6.20;;
7336;SDS011;54510;42.016;23.098;2022-12-05T07:34:05;12.65;;;7.03;;
7336;SDS011;54510;42.016;23.098;2022-12-05T07:36:30;11.85;;;6.53;;
7336;SDS011;54510;42.016;23.098;2022-12-05T07:38:57;20.23;;;10.88;;
7336;SDS011;54510;42.016;23.098;2022-12-05T07:43:50;12.05;;;7.53;;
7336;SDS011;54510;42.016;23.098;2022-12-05T07:46:17;19.23;;;11.95;;
7336;SDS011;54510;42.016;23.098;2022-12-05T07:48:43;19.20;;;11.05;;
7336;SDS011;54510;42.016;23.098;2022-12-05T07:51:09;10.55;;;6.68;;
7336;SDS011;54510;42.016;23.098;2022-12-05T07:53:35;17.42;;;9.95;;
7336;SDS011;54510;42.016;23.098;2022-12-05T07:56:02;15.55;;;9.32;;
7336;SDS011;54510;42.016;23.098;2022-12-05T07:58:29;26.30;;;15.15;;
7336;SDS011;54510;42.016;23.098;2022-12-05T08:00:55;19.40;;;10.55;;
7336;SDS011;54510;42.016;23.098;2022-12-05T08:03:22;13.00;;;8.30;;
7336;SDS011;54510;42.016;23.098;2022-12-05T08:05:48;13.80;;;8.32;;
7336;SDS011;54510;42.016;23.098;2022-12-05T08:08:14;9.73;;;7.07;;
7336;SDS011;54510;42.016;23.098;2022-12-05T08:10:39;11.00;;;7.63;;
7336;SDS011;54510;42.016;23.098;2022-12-05T08:13:05;14.65;;;9.18;;
7336;SDS011;54510;42.016;23.098;2022-12-05T08:15:33;12.70;;;8.75;;
7336;SDS011;54510;42.016;23.098;2022-12-05T08:18:00;13.43;;;9.25;;
7336;SDS011;54510;42.016;23.098;2022-12-05T08:20:25;12.93;;;8.07;;
7336;SDS011;54510;42.016;23.098;2022-12-05T08:22:51;16.67;;;9.90;;
7336;SDS011;54510;42.016;23.098;2022-12-05T08:25:18;14.73;;;9.27;;
7336;SDS011;54510;42.016;23.098;2022-12-05T08:27:43;15.52;;;9.32;;
7336;SDS011;54510;42.016;23.098;2022-12-05T08:30:09;12.77;;;9.27;;
7336;SDS011;54510;42.016;23.098;2022-12-05T08:32:34;14.52;;;8.10;;
7336;SDS011;54510;42.016;23.098;2022-12-05T08:35:00;15.48;;;9.02;;
7336;SDS011;54510;42.016;23.098;2022-12-05T08:37:25;19.80;;;10.90;;
7336;SDS011;54510;42.016;23.098;2022-12-05T08:39:51;16.45;;;10.77;;
7336;SDS011;54510;42.016;23.098;2022-12-05T08:42:16;19.17;;;11.80;;
7336;SDS011;54510;42.016;23.098;2022-12-05T08:44:41;16.73;;;10.82;;
7336;SDS011;54510;42.016;23.098;2022-12-05T08:47:07;16.02;;;9.63;;
7336;SDS011;54510;42.016;23.098;2022-12-05T08:49:32;41.33;;;24.52;;
7336;SDS011;54510;42.016;23.098;2022-12-05T08:51:58;20.25;;;12.35;;
7336;SDS011;54510;42.016;23.098;2022-12-05T08:54:23;35.60;;;22.77;;
7336;SDS011;54510;42.016;23.098;2022-12-05T08:56:49;25.55;;;14.88;;
7336;SDS011;54510;42.016;23.098;2022-12-05T08:59:15;23.55;;;14.02;;
7336;SDS011;54510;42.016;23.098;2022-12-05T09:01:41;19.10;;;11.95;;
7336;SDS011;54510;42.016;23.098;2022-12-05T09:04:06;20.95;;;12.25;;
7336;SDS011;54510;42.016;23.098;2022-12-05T09:06:32;17.60;;;11.63;;
7336;SDS011;54510;42.016;23.098;2022-12-05T09:08:59;15.57;;;10.73;;
7336;SDS011;54510;42.016;23.098;2022-12-05T09:11:30;18.77;;;11.43;;
7336;SDS011;54510;42.016;23.098;2022-12-05T09:13:57;22.08;;;12.23;;
7336;SDS011;54510;42.016;23.098;2022-12-05T09:16:25;18.50;;;11.13;;
7336;SDS011;54510;42.016;23.098;2022-12-05T09:18:55;19.30;;;11.95;;
7336;SDS011;54510;42.016;23.098;2022-12-05T09:21:25;18.05;;;11.43;;
7336;SDS011;54510;42.016;23.098;2022-12-05T09:23:53;18.10;;;11.80;;
7336;SDS011;54510;42.016;23.098;2022-12-05T09:26:20;25.05;;;16.05;;
7336;SDS011;54510;42.016;23.098;2022-12-05T09:28:47;30.80;;;20.77;;
7336;SDS011;54510;42.016;23.098;2022-12-05T09:31:14;37.80;;;21.70;;
7336;SDS011;54510;42.016;23.098;2022-12-05T09:33:42;35.83;;;22.30;;
7336;SDS011;54510;42.016;23.098;2022-12-05T09:36:10;31.95;;;16.25;;
7336;SDS011;54510;42.016;23.098;2022-12-05T09:38:37;25.13;;;17.33;;
7336;SDS011;54510;42.016;23.098;2022-12-05T09:41:27;26.38;;;16.27;;
7336;SDS011;54510;42.016;23.098;2022-12-05T09:49:37;43.63;;;27.23;;
7336;SDS011;54510;42.016;23.098;2022-12-05T09:52:28;37.53;;;22.00;;
7336;SDS011;54510;42.016;23.098;2022-12-05T09:55:00;19.38;;;13.65;;
7336;SDS011;54510;42.016;23.098;2022-12-05T09:57:31;23.85;;;14.65;;
7336;SDS011;54510;42.016;23.098;2022-12-05T10:00:00;20.88;;;14.00;;
7336;SDS011;54510;42.016;23.098;2022-12-05T10:02:35;20.75;;;14.05;;
7336;SDS011;54510;42.016;23.098;2022-12-05T10:05:09;17.02;;;11.48;;
7336;SDS011;54510;42.016;23.098;2022-12-05T10:10:33;20.58;;;13.70;;
7336;SDS011;54510;42.016;23.098;2022-12-05T10:13:07;18.80;;;11.77;;
7336;SDS011;54510;42.016;23.098;2022-12-05T10:15:36;18.38;;;12.70;;
7336;SDS011;54510;42.016;23.098;2022-12-05T10:18:12;22.23;;;14.82;;
7336;SDS011;54510;42.016;23.098;2022-12-05T10:23:15;19.90;;;12.93;;
7336;SDS011;54510;42.016;23.098;2022-12-05T10:25:45;23.02;;;13.52;;
7336;SDS011;54510;42.016;23.098;2022-12-05T10:28:23;20.77;;;12.70;;
7336;SDS011;54510;42.016;23.098;2022-12-05T10:30:55;22.02;;;14.95;;
7336;SDS011;54510;42.016;23.098;2022-12-05T10:33:25;33.00;;;17.50;;
7336;SDS011;54510;42.016;23.098;2022-12-05T10:35:55;32.50;;;18.05;;
7336;SDS011;54510;42.016;23.098;2022-12-05T10:38:27;29.05;;;18.17;;
7336;SDS011;54510;42.016;23.098;2022-12-05T10:40:56;38.20;;;23.85;;
7336;SDS011;54510;42.016;23.098;2022-12-05T10:43:26;42.10;;;27.63;;
7336;SDS011;54510;42.016;23.098;2022-12-05T10:45:53;27.08;;;17.83;;
7336;SDS011;54510;42.016;23.098;2022-12-05T10:48:19;21.73;;;15.80;;
7336;SDS011;54510;42.016;23.098;2022-12-05T10:50:47;30.98;;;20.85;;
7336;SDS011;54510;42.016;23.098;2022-12-05T10:53:16;38.03;;;23.20;;
7336;SDS011;54510;42.016;23.098;2022-12-05T10:55:46;48.20;;;25.35;;
7336;SDS011;54510;42.016;23.098;2022-12-05T11:00:47;57.35;;;35.33;;
7336;SDS011;54510;42.016;23.098;2022-12-05T11:03:22;50.10;;;34.03;;
7336;SDS011;54510;42.016;23.098;2022-12-05T11:05:49;34.10;;;21.73;;
7336;SDS011;54510;42.016;23.098;2022-12-05T11:08:25;24.38;;;18.10;;
7336;SDS011;54510;42.016;23.098;2022-12-05T11:11:00;34.75;;;20.13;;
7336;SDS011;54510;42.016;23.098;2022-12-05T11:14:04;25.92;;;17.35;;
7336;SDS011;54510;42.016;23.098;2022-12-05T11:16:32;33.72;;;22.13;;
7336;SDS011;54510;42.016;23.098;2022-12-05T11:21:47;29.27;;;20.13;;
7336;SDS011;54510;42.016;23.098;2022-12-05T11:26:53;37.42;;;22.23;;
7336;SDS011;54510;42.016;23.098;2022-12-05T11:29:28;31.48;;;20.98;;
7336;SDS011;54510;42.016;23.098;2022-12-05T11:31:59;42.90;;;28.15;;
7336;SDS011;54510;42.016;23.098;2022-12-05T11:34:36;33.92;;;20.67;;
7336;SDS011;54510;42.016;23.098;2022-12-05T11:37:12;24.13;;;16.92;;
7336;SDS011;54510;42.016;23.098;2022-12-05T11:39:42;30.15;;;19.10;;
7336;SDS011;54510;42.016;23.098;2022-12-05T11:42:22;28.08;;;19.58;;
7336;SDS011;54510;42.016;23.098;2022-12-05T11:45:11;25.50;;;18.27;;
7336;SDS011;54510;42.016;23.098;2022-12-05T11:48:09;27.98;;;17.90;;
7336;SDS011;54510;42.016;23.098;2022-12-05T11:53:39;24.75;;;16.75;;
7336;SDS011;54510;42.016;23.098;2022-12-05T12:05:16;25.25;;;14.25;;
7336;SDS011;54510;42.016;23.098;2022-12-05T12:21:49;25.05;;;15.98;;
7336;SDS011;54510;42.016;23.098;2022-12-05T12:24:26;22.73;;;13.50;;
7336;SDS011;54510;42.016;23.098;2022-12-05T12:32:43;20.55;;;12.45;;
7336;SDS011;54510;42.016;23.098;2022-12-05T12:35:29;16.95;;;11.13;;
7336;SDS011;54510;42.016;23.098;2022-12-05T12:40:53;18.13;;;12.27;;
7336;SDS011;54510;42.016;23.098;2022-12-05T12:43:38;19.48;;;12.55;;
7336;SDS011;54510;42.016;23.098;2022-12-05T12:52:17;17.60;;;11.02;;
7336;SDS011;54510;42.016;23.098;2022-12-05T12:57:50;23.73;;;14.63;;
7336;SDS011;54510;42.016;23.098;2022-12-05T13:10:54;17.77;;;11.85;;
7336;SDS011;54510;42.016;23.098;2022-12-05T13:13:33;18.40;;;10.48;;
7336;SDS011;54510;42.016;23.098;2022-12-05T13:16:03;17.00;;;11.15;;
7336;SDS011;54510;42.016;23.098;2022-12-05T13:18:32;15.63;;;11.40;;
7336;SDS011;54510;42.016;23.098;2022-12-05T13:20:58;17.63;;;11.93;;
7336;SDS011;54510;42.016;23.098;2022-12-05T13:23:35;16.10;;;10.70;;
7336;SDS011;54510;42.016;23.098;2022-12-05T13:26:10;15.18;;;10.45;;
7336;SDS011;54510;42.016;23.098;2022-12-05T13:31:11;63.50;;;39.60;;
7336;SDS011;54510;42.016;23.098;2022-12-05T13:33:44;29.23;;;19.83;;
7336;SDS011;54510;42.016;23.098;2022-12-05T13:36:11;15.93;;;9.82;;
7336;SDS011;54510;42.016;23.098;2022-12-05T13:39:00;18.27;;;12.32;;
7336;SDS011;54510;42.016;23.098;2022-12-05T13:41:50;16.75;;;12.23;;
7336;SDS011;54510;42.016;23.098;2022-12-05T13:47:24;18.40;;;12.65;;
7336;SDS011;54510;42.016;23.098;2022-12-05T13:52:31;18.58;;;11.50;;
7336;SDS011;54510;42.016;23.098;2022-12-05T13:57:47;17.70;;;10.65;;
7336;SDS011;54510;42.016;23.098;2022-12-05T14:05:54;30.90;;;19.35;;
7336;SDS011;54510;42.016;23.098;2022-12-05T14:11:15;23.05;;;14.20;;
7336;SDS011;54510;42.016;23.098;2022-12-05T14:13:41;22.48;;;16.08;;
7336;SDS011;54510;42.016;23.098;2022-12-05T14:34:54;59.30;;;39.53;;
7336;SDS011;54510;42.016;23.098;2022-12-05T14:40:41;19.30;;;13.50;;
7336;SDS011;54510;42.016;23.098;2022-12-05T15:01:22;41.90;;;26.83;;
7336;SDS011;54510;42.016;23.098;2022-12-05T15:06:23;46.80;;;31.23;;
7336;SDS011;54510;42.016;23.098;2022-12-05T15:08:50;39.67;;;26.38;;
7336;SDS011;54510;42.016;23.098;2022-12-05T15:11:21;26.52;;;20.55;;
7336;SDS011;54510;42.016;23.098;2022-12-05T15:16:33;38.35;;;26.05;;
7336;SDS011;54510;42.016;23.098;2022-12-05T15:19:04;38.00;;;24.80;;
7336;SDS011;54510;42.016;23.098;2022-12-05T15:21:40;43.42;;;27.90;;
7336;SDS011;54510;42.016;23.098;2022-12-05T15:24:16;36.55;;;22.58;;
7336;SDS011;54510;42.016;23.098;2022-12-05T15:29:14;31.55;;;19.20;;
7336;SDS011;54510;42.016;23.098;2022-12-05T15:34:21;27.15;;;18.98;;
7336;SDS011;54510;42.016;23.098;2022-12-05T15:37:22;33.67;;;21.65;;
7336;SDS011;54510;42.016;23.098;2022-12-05T15:40:02;39.72;;;19.65;;
7336;SDS011;54510;42.016;23.098;2022-12-05T15:47:42;31.08;;;17.25;;
7336;SDS011;54510;42.016;23.098;2022-12-05T15:50:20;29.02;;;18.92;;
7336;SDS011;54510;42.016;23.098;2022-12-05T15:52:49;30.17;;;18.17;;
7336;SDS011;54510;42.016;23.098;2022-12-05T15:55:23;33.03;;;19.55;;
7336;SDS011;54510;42.016;23.098;2022-12-05T15:58:05;34.60;;;20.02;;
7336;SDS011;54510;42.016;23.098;2022-12-05T16:00:42;28.02;;;17.90;;
7336;SDS011;54510;42.016;23.098;2022-12-05T16:03:13;33.47;;;19.10;;
7336;SDS011;54510;42.016;23.098;2022-12-05T16:05:54;31.83;;;21.30;;
7336;SDS011;54510;42.016;23.098;2022-12-05T16:08:26;31.13;;;19.67;;
7336;SDS011;54510;42.016;23.098;2022-12-05T16:11:10;30.17;;;19.38;;
7336;SDS011;54510;42.016;23.098;2022-12-05T16:13:41;31.88;;;19.27;;
7336;SDS011;54510;42.016;23.098;2022-12-05T16:16:15;33.65;;;19.73;;
7336;SDS011;54510;42.016;23.098;2022-12-05T16:18:51;38.63;;;21.73;;
7336;SDS011;54510;42.016;23.098;2022-12-05T16:21:37;39.97;;;23.67;;
7336;SDS011;54510;42.016;23.098;2022-12-05T16:24:28;47.90;;;27.58;;
7336;SDS011;54510;42.016;23.098;2022-12-05T16:26:58;36.65;;;22.45;;
7336;SDS011;54510;42.016;23.098;2022-12-05T16:29:30;37.67;;;23.45;;
7336;SDS011;54510;42.016;23.098;2022-12-05T16:32:00;36.85;;;21.85;;
7336;SDS011;54510;42.016;23.098;2022-12-05T16:34:28;26.90;;;18.27;;
7336;SDS011;54510;42.016;23.098;2022-12-05T16:36:57;25.50;;;17.13;;
7336;SDS011;54510;42.016;23.098;2022-12-05T16:39:25;34.58;;;21.33;;
7336;SDS011;54510;42.016;23.098;2022-12-05T16:41:55;32.42;;;20.00;;
7336;SDS011;54510;42.016;23.098;2022-12-05T16:46:56;34.80;;;22.25;;
7336;SDS011;54510;42.016;23.098;2022-12-05T16:49:34;36.95;;;22.60;;
7336;SDS011;54510;42.016;23.098;2022-12-05T16:54:32;35.03;;;20.35;;
7336;SDS011;54510;42.016;23.098;2022-12-05T16:56:58;33.00;;;20.52;;
7336;SDS011;54510;42.016;23.098;2022-12-05T16:59:58;37.67;;;21.17;;
7336;SDS011;54510;42.016;23.098;2022-12-05T17:02:17;31.73;;;19.77;;
7336;SDS011;54510;42.016;23.098;2022-12-05T17:04:42;29.38;;;19.70;;
7336;SDS011;54510;42.016;23.098;2022-12-05T17:07:08;48.00;;;27.05;;
7336;SDS011;54510;42.016;23.098;2022-12-05T17:09:34;45.85;;;27.38;;
7336;SDS011;54510;42.016;23.098;2022-12-05T17:12:00;48.03;;;29.73;;
7336;SDS011;54510;42.016;23.098;2022-12-05T17:14:34;48.72;;;30.30;;
7336;SDS011;54510;42.016;23.098;2022-12-05T17:16:59;49.08;;;28.05;;
7336;SDS011;54510;42.016;23.098;2022-12-05T17:19:25;46.80;;;25.58;;
7336;SDS011;54510;42.016;23.098;2022-12-05T17:21:52;43.67;;;24.80;;
7336;SDS011;54510;42.016;23.098;2022-12-05T17:24:18;38.33;;;22.65;;
7336;SDS011;54510;42.016;23.098;2022-12-05T17:26:44;35.83;;;21.80;;
7336;SDS011;54510;42.016;23.098;2022-12-05T17:29:10;27.65;;;18.67;;
7336;SDS011;54510;42.016;23.098;2022-12-05T17:31:36;37.92;;;21.83;;
7336;SDS011;54510;42.016;23.098;2022-12-05T17:34:02;29.05;;;18.75;;
7336;SDS011;54510;42.016;23.098;2022-12-05T17:36:34;32.40;;;18.15;;
7336;SDS011;54510;42.016;23.098;2022-12-05T17:39:00;25.23;;;16.83;;
7336;SDS011;54510;42.016;23.098;2022-12-05T17:41:25;24.98;;;14.90;;
7336;SDS011;54510;42.016;23.098;2022-12-05T17:43:50;31.55;;;17.75;;
7336;SDS011;54510;42.016;23.098;2022-12-05T17:46:18;33.63;;;21.00;;
7336;SDS011;54510;42.016;23.098;2022-12-05T17:48:45;30.35;;;19.20;;
7336;SDS011;54510;42.016;23.098;2022-12-05T17:51:11;31.50;;;17.55;;
7336;SDS011;54510;42.016;23.098;2022-12-05T17:53:38;26.27;;;14.65;;
7336;SDS011;54510;42.016;23.098;2022-12-05T17:56:05;26.15;;;14.68;;
7336;SDS011;54510;42.016;23.098;2022-12-05T17:58:31;19.25;;;13.25;;
7336;SDS011;54510;42.016;23.098;2022-12-05T18:00:57;19.90;;;11.40;;
7336;SDS011;54510;42.016;23.098;2022-12-05T18:03:22;15.95;;;11.60;;